createdAt,value
2023-05-15T00:00:24.266Z,98949.94
2023-05-15T00:02:53.397Z,98945.66
2023-05-15T00:05:21.842Z,98954.31
2023-05-15T00:07:50.140Z,98934.50
2023-05-15T00:10:18.338Z,98946.50
2023-05-15T00:12:46.574Z,98934.63
2023-05-15T00:15:14.746Z,98931.78
2023-05-15T00:17:42.951Z,98934.72
2023-05-15T00:20:12.658Z,98923.72
2023-05-15T00:22:40.906Z,98915.59
2023-05-15T00:25:09.703Z,98925.91
2023-05-15T00:27:38.724Z,98921.72
2023-05-15T00:30:07.776Z,98921.25
2023-05-15T00:32:36.022Z,98917.94
2023-05-15T00:35:05.568Z,98913.78
2023-05-15T00:37:33.700Z,98917.44
2023-05-15T00:40:01.810Z,98921.63
2023-05-15T00:42:31.377Z,98918.78
2023-05-15T00:45:02.819Z,98922.88
2023-05-15T00:47:31.616Z,98918.78
2023-05-15T00:50:00.657Z,98918.53
2023-05-15T00:52:30.465Z,98921.34
2023-05-15T00:54:58.608Z,98918.09
2023-05-15T00:57:27.971Z,98917.44
2023-05-15T00:59:57.620Z,98923.94
2023-05-15T01:02:25.943Z,98921.88
2023-05-15T01:04:54.330Z,98910.22
2023-05-15T01:07:22.516Z,98913.75
2023-05-15T01:09:54.194Z,98911.94
2023-05-15T01:12:27.236Z,98908.72
2023-05-15T01:14:55.377Z,98907.75
2023-05-15T01:17:24.403Z,98902.59
2023-05-15T01:19:52.969Z,98892.34
2023-05-15T01:23:15.246Z,98887.38
2023-05-15T01:25:47.675Z,98879.44
2023-05-15T01:28:24.272Z,98875.16
2023-05-15T01:30:56.723Z,98869.94
2023-05-15T01:33:31.312Z,98881.59
2023-05-15T01:36:18.909Z,98889.78
2023-05-15T01:38:52.262Z,98884.66
2023-05-15T01:41:30.964Z,98874.22
2023-05-15T01:44:18.381Z,98862.47
2023-05-15T01:46:51.950Z,98876.72
2023-05-15T01:49:26.925Z,98878.16
2023-05-15T01:52:35.121Z,98880.38
2023-05-15T01:55:06.461Z,98874.13
2023-05-15T01:57:36.271Z,98882.84
2023-05-15T02:00:05.741Z,98888.25
2023-05-15T02:02:34.186Z,98887.06
2023-05-15T02:05:03.842Z,98887.50
2023-05-15T02:07:34.124Z,98878.47
2023-05-15T02:10:03.888Z,98868.03
2023-05-15T02:12:32.923Z,98862.25
2023-05-15T02:15:04.437Z,98863.63
2023-05-15T02:17:32.662Z,98862.50
2023-05-15T02:20:00.852Z,98859.09
2023-05-15T02:22:28.998Z,98860.66
2023-05-15T02:24:57.167Z,98860.56
2023-05-15T02:27:29.133Z,98864.91
2023-05-15T02:30:33.302Z,98878.84
2023-05-15T02:33:37.913Z,98876.97
2023-05-15T02:36:09.609Z,98869.75
2023-05-15T02:38:56.895Z,98862.34
2023-05-15T02:41:25.958Z,98862.84
2023-05-15T02:43:56.722Z,98877.03
2023-05-15T02:46:25.750Z,98884.75
2023-05-15T02:48:55.441Z,98883.13
2023-05-15T02:51:24.488Z,98879.00
2023-05-15T02:53:52.829Z,98881.44
2023-05-15T02:56:21.678Z,98877.13
2023-05-15T02:58:49.882Z,98872.28
2023-05-15T03:01:18.950Z,98868.31
2023-05-15T03:03:47.912Z,98856.97
2023-05-15T03:06:16.829Z,98865.97
2023-05-15T03:08:45.320Z,98848.84
2023-05-15T03:11:14.263Z,98854.16
2023-05-15T03:13:43.415Z,98850.03
2023-05-15T03:16:11.618Z,98840.63
2023-05-15T03:18:39.810Z,98840.75
2023-05-15T03:21:08.777Z,98842.25
2023-05-15T03:23:38.001Z,98832.84
2023-05-15T03:26:06.423Z,98834.53
2023-05-15T03:28:34.611Z,98842.47
2023-05-15T03:31:05.034Z,98832.84
2023-05-15T03:33:33.167Z,98838.16
2023-05-15T03:36:02.132Z,98842.34
2023-05-15T03:38:30.278Z,98835.69
2023-05-15T03:40:58.477Z,98831.69
2023-05-15T03:43:26.646Z,98808.09
2023-05-15T03:45:55.832Z,98813.03
2023-05-15T03:48:24.804Z,98811.94
2023-05-15T03:50:53.223Z,98799.25
2023-05-15T03:53:22.166Z,98800.03
2023-05-15T03:55:50.520Z,98807.84
2023-05-15T03:58:19.468Z,98801.41
2023-05-15T04:00:47.620Z,98797.50
2023-05-15T04:03:15.935Z,98804.38
2023-05-15T04:05:44.419Z,98792.28
2023-05-15T04:08:12.687Z,98801.41
2023-05-15T04:10:40.856Z,98799.25
2023-05-15T04:13:09.845Z,98803.59
2023-05-15T04:15:38.787Z,98811.28
2023-05-15T04:18:06.928Z,98816.56
2023-05-15T04:20:35.970Z,98812.06
2023-05-15T04:23:07.261Z,98813.25
2023-05-15T04:25:35.504Z,98818.69
2023-05-15T04:28:03.840Z,98812.28
2023-05-15T04:30:32.007Z,98809.44
2023-05-15T04:33:00.280Z,98811.94
2023-05-15T04:35:28.543Z,98804.50
2023-05-15T04:37:56.834Z,98798.66
2023-05-15T04:40:25.034Z,98791.00
2023-05-15T04:42:53.210Z,98788.47
2023-05-15T04:45:21.662Z,98789.91
2023-05-15T04:47:49.898Z,98777.53
2023-05-15T04:50:18.111Z,98771.56
2023-05-15T04:52:47.059Z,98773.41
2023-05-15T04:55:15.247Z,98778.00
2023-05-15T04:57:43.430Z,98792.81
2023-05-15T05:00:12.568Z,98809.75
2023-05-15T05:02:41.087Z,98815.47
2023-05-15T05:05:09.939Z,98824.53
2023-05-15T05:07:38.171Z,98831.25
2023-05-15T05:10:08.265Z,98843.94
2023-05-15T05:12:36.498Z,98840.78
2023-05-15T05:15:05.418Z,98843.50
2023-05-15T05:17:33.628Z,98844.16
2023-05-15T05:20:01.849Z,98843.38
2023-05-15T05:22:31.124Z,98849.53
2023-05-15T05:24:59.351Z,98851.00
2023-05-15T05:27:28.003Z,98861.41
2023-05-15T05:29:56.239Z,98857.84
2023-05-15T05:32:24.814Z,98843.09
2023-05-15T05:34:53.832Z,98825.63
2023-05-15T05:37:22.785Z,98835.69
2023-05-15T05:39:50.944Z,98849.53
2023-05-15T05:42:19.079Z,98873.59
2023-05-15T05:44:47.330Z,98887.53
2023-05-15T05:47:16.678Z,98898.38
2023-05-15T05:49:48.246Z,98909.97
2023-05-15T05:52:16.949Z,98903.94
2023-05-15T05:54:46.608Z,98883.72
2023-05-15T05:57:15.856Z,98875.16
2023-05-15T05:59:44.117Z,98872.91
2023-05-15T06:02:13.654Z,98873.84
2023-05-15T06:04:41.871Z,98861.91
2023-05-15T06:07:11.130Z,98857.16
2023-05-15T06:09:39.372Z,98867.13
2023-05-15T06:12:08.626Z,98872.44
2023-05-15T06:14:37.654Z,98887.25
2023-05-15T06:17:06.112Z,98892.63
2023-05-15T06:19:34.367Z,98888.69
2023-05-15T06:22:02.629Z,98889.47
2023-05-15T06:24:31.845Z,98886.91
2023-05-15T06:27:00.304Z,98903.09
2023-05-15T06:29:29.227Z,98907.69
2023-05-15T06:31:57.537Z,98912.34
2023-05-15T06:34:26.506Z,98920.97
2023-05-15T06:36:55.468Z,98930.66
2023-05-15T06:39:23.746Z,98929.06
2023-05-15T06:41:58.209Z,98911.88
2023-05-15T06:44:31.573Z,98912.78
2023-05-15T06:47:00.126Z,98915.78
2023-05-15T06:49:29.290Z,98896.97
2023-05-15T06:51:57.587Z,98899.91
2023-05-15T06:54:26.548Z,98895.88
2023-05-15T06:56:54.754Z,98887.91
2023-05-15T06:59:23.771Z,98882.53
2023-05-15T07:01:52.055Z,98891.97
2023-05-15T07:04:20.328Z,98888.00
2023-05-15T07:06:49.386Z,98882.47
2023-05-15T07:09:18.407Z,98880.19
2023-05-15T07:11:47.463Z,98885.03
2023-05-15T07:14:15.711Z,98890.38
2023-05-15T07:16:45.863Z,98887.81
2023-05-15T07:19:16.897Z,98893.84
2023-05-15T07:21:45.108Z,98887.88
2023-05-15T07:24:14.065Z,98896.66
2023-05-15T07:26:50.615Z,98890.69
2023-05-15T07:29:26.623Z,98889.97
2023-05-15T07:31:55.742Z,98904.00
2023-05-15T07:34:24.246Z,98907.53
2023-05-15T07:36:52.428Z,98905.56
2023-05-15T07:39:21.530Z,98896.78
2023-05-15T07:41:49.766Z,98893.06
2023-05-15T07:44:18.704Z,98888.63
2023-05-15T07:46:47.080Z,98884.94
2023-05-15T07:49:16.096Z,98885.78
2023-05-15T07:51:46.754Z,98898.19
2023-05-15T07:54:14.892Z,98889.34
2023-05-15T07:56:43.044Z,98887.22
2023-05-15T07:59:11.297Z,98888.09
2023-05-15T08:01:40.330Z,98905.28
2023-05-15T08:04:09.801Z,98920.38
2023-05-15T08:06:38.854Z,98921.22
2023-05-15T08:09:06.994Z,98919.25
2023-05-15T08:11:36.269Z,98930.09
2023-05-15T08:14:04.546Z,98922.97
2023-05-15T08:16:32.913Z,98922.94
2023-05-15T08:19:05.002Z,98929.28
2023-05-15T08:21:36.168Z,98934.28
2023-05-15T08:24:05.577Z,98939.09
2023-05-15T08:26:33.725Z,98924.94
2023-05-15T08:29:01.850Z,98925.94
2023-05-15T08:31:30.763Z,98919.09
2023-05-15T08:33:58.920Z,98921.94
2023-05-15T08:36:28.040Z,98921.25
2023-05-15T08:38:56.304Z,98920.97
2023-05-15T08:41:40.491Z,98922.22
2023-05-15T08:44:11.360Z,98924.00
2023-05-15T08:46:40.025Z,98937.34
2023-05-15T08:49:21.524Z,98944.88
2023-05-15T08:51:49.789Z,98931.91
2023-05-15T08:54:19.057Z,98931.16
2023-05-15T08:56:47.675Z,98928.88
2023-05-15T08:59:15.934Z,98922.91
2023-05-15T09:01:44.244Z,98929.09
2023-05-15T09:04:12.712Z,98929.09
2023-05-15T09:06:42.164Z,98926.59
2023-05-15T09:09:13.714Z,98918.25
2023-05-15T09:11:46.668Z,98928.16
2023-05-15T09:14:14.890Z,98938.69
2023-05-15T09:16:43.535Z,98937.97
2023-05-15T09:19:12.842Z,98940.75
2023-05-15T09:21:41.122Z,98955.59
2023-05-15T09:24:21.770Z,98950.81
2023-05-15T09:27:08.543Z,98956.06
2023-05-15T09:29:38.754Z,98964.91
2023-05-15T09:32:10.608Z,98967.72
2023-05-15T09:34:42.420Z,98974.00
2023-05-15T09:37:28.099Z,98973.78
2023-05-15T09:39:56.461Z,98969.47
2023-05-15T09:42:24.971Z,98961.41
2023-05-15T09:44:53.157Z,98982.75
2023-05-15T09:47:21.535Z,98982.63
2023-05-15T09:49:49.468Z,98975.13
2023-05-15T09:52:19.429Z,98980.56
2023-05-15T09:54:50.115Z,98982.50
2023-05-15T09:57:23.599Z,98977.84
2023-05-15T09:59:51.872Z,98979.16
2023-05-15T10:02:32.754Z,98974.97
2023-05-15T10:05:01.625Z,98979.25
2023-05-15T10:07:35.840Z,98978.03
2023-05-15T10:10:06.445Z,98979.81
2023-05-15T10:12:36.851Z,98981.25
2023-05-15T10:15:05.363Z,98981.44
2023-05-15T10:17:36.368Z,98977.31
2023-05-15T10:20:07.304Z,98979.88
2023-05-15T10:22:38.833Z,98978.81
2023-05-15T10:25:19.142Z,98983.53
2023-05-15T10:27:48.334Z,98982.97
2023-05-15T10:30:19.606Z,98982.25
2023-05-15T10:32:49.882Z,98980.50
2023-05-15T10:35:18.682Z,98992.00
2023-05-15T10:37:49.272Z,98990.06
2023-05-15T10:40:18.355Z,98985.94
2023-05-15T10:42:47.981Z,98993.97
2023-05-15T10:45:16.884Z,98981.88
2023-05-15T10:47:46.400Z,98982.59
2023-05-15T10:50:15.743Z,98984.22
2023-05-15T10:52:43.974Z,98977.38
2023-05-15T10:55:17.899Z,98991.28
2023-05-15T10:57:47.670Z,98980.41
2023-05-15T11:00:42.554Z,98984.22
2023-05-15T11:03:47.816Z,98977.38
2023-05-15T11:06:17.151Z,98982.41
2023-05-15T11:08:46.086Z,98988.72
2023-05-15T11:11:58.431Z,98981.66
2023-05-15T11:14:28.748Z,98982.09
2023-05-15T11:17:04.338Z,98981.31
2023-05-15T11:19:59.630Z,98989.97
2023-05-15T11:22:33.067Z,98998.06
2023-05-15T11:25:02.120Z,98997.94
2023-05-15T11:27:44.387Z,98996.28
2023-05-15T11:30:25.444Z,98987.19
2023-05-15T11:33:05.315Z,98985.56
2023-05-15T11:35:43.335Z,98992.16
2023-05-15T11:38:11.335Z,98990.34
2023-05-15T11:40:58.765Z,98983.94
2023-05-15T11:43:32.092Z,98980.41
2023-05-15T11:46:07.829Z,98976.47
2023-05-15T11:48:48.011Z,98986.72
2023-05-15T11:51:27.874Z,98979.09
2023-05-15T11:53:57.185Z,98980.16
2023-05-15T11:56:28.637Z,98967.38
2023-05-15T11:58:59.681Z,98969.88
2023-05-15T12:01:39.778Z,98962.50
2023-05-15T12:04:15.926Z,98967.81
2023-05-15T12:06:47.612Z,98969.72
2023-05-15T12:09:19.360Z,98980.19
2023-05-15T12:11:55.995Z,98977.44
2023-05-15T12:14:31.658Z,98975.72
2023-05-15T12:17:04.697Z,98990.84
2023-05-15T12:19:35.163Z,98988.88
2023-05-15T12:22:06.572Z,98996.53
2023-05-15T12:24:39.940Z,98989.13
2023-05-15T12:27:09.143Z,98982.25
2023-05-15T12:29:37.689Z,98984.38
2023-05-15T12:32:06.068Z,98990.31
2023-05-15T12:34:33.946Z,99000.97
2023-05-15T12:37:02.999Z,98999.19
2023-05-15T12:39:31.186Z,98991.00
2023-05-15T12:41:59.263Z,98979.44
2023-05-15T12:44:27.512Z,98990.06
2023-05-15T12:46:55.859Z,98983.78
2023-05-15T12:49:24.053Z,98989.03
2023-05-15T12:51:52.036Z,98979.16
2023-05-15T12:54:21.443Z,98985.81
2023-05-15T12:56:49.980Z,98983.41
2023-05-15T12:59:19.278Z,98980.72
2023-05-15T13:01:47.365Z,98975.50
2023-05-15T13:04:16.796Z,98975.88
2023-05-15T13:06:47.851Z,98969.47
2023-05-15T13:09:26.598Z,98963.13
2023-05-15T13:11:57.464Z,98943.88
2023-05-15T13:14:29.192Z,98943.59
2023-05-15T13:17:04.146Z,98947.22
2023-05-15T13:19:32.252Z,98950.22
2023-05-15T13:21:59.706Z,98939.69
2023-05-15T13:24:27.876Z,98940.00
2023-05-15T13:26:56.112Z,98939.81
2023-05-15T13:29:24.034Z,98947.38
2023-05-15T13:31:52.188Z,98951.06
2023-05-15T13:34:20.166Z,98958.06
2023-05-15T13:36:48.198Z,98946.44
2023-05-15T13:39:16.174Z,98936.56
2023-05-15T13:41:44.274Z,98941.28
2023-05-15T13:44:12.241Z,98928.25
2023-05-15T13:46:40.308Z,98925.25
2023-05-15T13:49:08.272Z,98923.53
2023-05-15T13:51:36.231Z,98926.25
2023-05-15T13:54:05.231Z,98929.97
2023-05-15T13:56:33.279Z,98920.09
2023-05-15T13:59:01.421Z,98919.81
2023-05-15T14:01:29.588Z,98912.59
2023-05-15T14:03:57.682Z,98920.63
2023-05-15T14:06:28.106Z,98930.34
2023-05-15T14:08:56.311Z,98939.19
2023-05-15T14:11:24.289Z,98926.25
2023-05-15T14:13:52.201Z,98942.94
2023-05-15T14:16:20.185Z,98941.22
2023-05-15T14:18:48.424Z,98947.69
2023-05-15T14:21:16.412Z,98943.78
2023-05-15T14:23:44.476Z,98942.53
2023-05-15T14:26:12.414Z,98948.00
2023-05-15T14:28:40.386Z,98955.50
2023-05-15T14:31:08.499Z,98945.75
2023-05-15T14:33:36.535Z,98944.78
2023-05-15T14:36:05.830Z,98944.22
2023-05-15T14:38:34.012Z,98951.75
2023-05-15T14:41:02.017Z,98945.94
2023-05-15T14:43:30.243Z,98949.66
2023-05-15T14:45:58.367Z,98948.66
2023-05-15T14:48:26.561Z,98949.66
2023-05-15T14:50:54.515Z,98944.53
2023-05-15T14:53:22.540Z,98958.75
2023-05-15T14:55:51.590Z,98953.78
2023-05-15T14:58:20.844Z,98959.16
2023-05-15T15:00:48.974Z,98957.16
2023-05-15T15:03:17.257Z,98960.22
2023-05-15T15:05:45.582Z,98966.91
2023-05-15T15:08:13.735Z,98963.94
2023-05-15T15:10:41.497Z,98958.97
2023-05-15T15:13:10.330Z,98960.19
2023-05-15T15:15:38.320Z,98970.44
2023-05-15T15:18:05.986Z,98961.38
2023-05-15T15:20:34.326Z,98966.38
2023-05-15T15:23:04.270Z,98964.19
2023-05-15T15:25:33.621Z,98966.78
2023-05-15T15:28:03.055Z,98962.25
2023-05-15T15:30:31.225Z,98964.44
2023-05-15T15:32:59.362Z,98971.88
2023-05-15T15:35:27.540Z,98973.75
2023-05-15T15:37:55.587Z,98984.59
2023-05-15T15:40:24.638Z,98982.75
2023-05-15T15:42:54.360Z,98977.38
2023-05-15T15:45:22.578Z,98991.22
2023-05-15T15:47:50.694Z,98991.59
2023-05-15T15:50:18.878Z,98993.44
2023-05-15T15:52:47.071Z,98992.19
2023-05-15T15:55:15.246Z,98996.63
2023-05-15T15:57:44.071Z,98989.56
2023-05-15T16:00:13.042Z,98995.31
2023-05-15T16:02:42.184Z,98986.16
2023-05-15T16:05:10.433Z,98995.75
2023-05-15T16:07:38.514Z,98989.41
2023-05-15T16:10:12.338Z,98989.47
2023-05-15T16:12:42.520Z,99007.31
2023-05-15T16:17:44.656Z,99011.13
2023-05-15T16:20:12.164Z,99006.94
2023-05-15T16:22:41.891Z,99000.16
2023-05-15T16:25:10.453Z,98992.78
2023-05-15T16:27:38.641Z,98992.56
2023-05-15T16:30:07.951Z,99005.28
2023-05-15T16:32:36.374Z,99007.34
2023-05-15T16:35:05.183Z,99010.72
2023-05-15T16:37:33.297Z,99005.00
2023-05-15T16:40:01.484Z,99002.13
2023-05-15T16:42:29.639Z,99008.22
2023-05-15T16:44:57.751Z,99006.75
2023-05-15T16:47:25.050Z,99003.75
2023-05-15T16:49:53.211Z,99009.94
2023-05-15T16:52:21.461Z,99011.28
2023-05-15T16:54:49.654Z,99023.50
2023-05-15T16:57:17.781Z,99021.75
2023-05-15T16:59:46.288Z,99027.63
2023-05-15T17:02:14.955Z,99031.22
2023-05-15T17:04:43.146Z,99039.50
2023-05-15T17:07:11.301Z,99033.66
2023-05-15T17:09:43.217Z,99035.56
2023-05-15T17:12:11.470Z,99042.47
2023-05-15T17:14:39.591Z,99035.91
2023-05-15T17:17:07.761Z,99021.50
2023-05-15T17:19:35.887Z,99037.34
2023-05-15T17:22:04.193Z,99043.06
2023-05-15T17:24:42.693Z,99048.91
2023-05-15T17:27:20.140Z,99058.19
2023-05-15T17:29:48.578Z,99044.34
2023-05-15T17:32:18.014Z,99047.59
2023-05-15T17:34:46.581Z,99052.75
2023-05-15T17:37:15.074Z,99052.06
2023-05-15T17:39:43.713Z,99063.63
2023-05-15T17:42:10.965Z,99065.31
2023-05-15T17:44:39.464Z,99070.69
2023-05-15T17:47:07.091Z,99068.72
2023-05-15T17:49:35.204Z,99070.41
2023-05-15T17:52:03.312Z,99061.88
2023-05-15T17:54:31.504Z,99055.91
2023-05-15T17:57:00.404Z,99055.06
2023-05-15T17:59:29.385Z,99058.78
2023-05-15T18:01:57.913Z,99061.22
2023-05-15T18:04:26.967Z,99062.34
2023-05-15T18:06:55.196Z,99056.63
2023-05-15T18:09:24.630Z,99062.34
2023-05-15T18:11:52.388Z,99065.50
2023-05-15T18:14:20.703Z,99058.78
2023-05-15T18:16:48.862Z,99064.50
2023-05-15T18:19:17.153Z,99064.50
2023-05-15T18:21:45.366Z,99059.69
2023-05-15T18:24:13.509Z,99074.22
2023-05-15T18:26:42.433Z,99069.59
2023-05-15T18:29:10.578Z,99075.22
2023-05-15T18:31:38.729Z,99078.06
2023-05-15T18:34:07.010Z,99081.47
2023-05-15T18:36:35.162Z,99082.47
2023-05-15T18:39:03.559Z,99088.19
2023-05-15T18:41:31.757Z,99079.75
2023-05-15T18:44:00.009Z,99085.41
2023-05-15T18:46:28.627Z,99088.13
2023-05-15T18:48:56.914Z,99106.75
2023-05-15T18:51:25.125Z,99111.03
2023-05-15T18:53:53.376Z,99112.59
2023-05-15T18:56:22.493Z,99106.31
2023-05-15T18:58:51.076Z,99120.84
2023-05-15T19:01:19.338Z,99108.63
2023-05-15T19:03:47.584Z,99105.78
2023-05-15T19:06:20.330Z,99114.59
2023-05-15T19:08:49.063Z,99112.16
2023-05-15T19:11:17.475Z,99120.00
2023-05-15T19:13:44.735Z,99128.53
2023-05-15T19:16:12.970Z,99136.19
2023-05-15T19:18:40.330Z,99137.88
2023-05-15T19:21:07.766Z,99137.03
2023-05-15T19:23:36.132Z,99139.56
2023-05-15T19:26:04.224Z,99139.38
2023-05-15T19:28:32.398Z,99137.88
2023-05-15T19:31:00.560Z,99132.22
2023-05-15T19:33:28.759Z,99129.63
2023-05-15T19:35:56.950Z,99127.63
2023-05-15T19:38:25.082Z,99132.44
2023-05-15T19:40:53.300Z,99125.06
2023-05-15T19:43:21.434Z,99121.03
2023-05-15T19:45:49.615Z,99110.78
2023-05-15T19:48:17.797Z,99107.47
2023-05-15T19:50:46.288Z,99105.84
2023-05-15T19:53:14.472Z,99105.38
2023-05-15T19:55:44.184Z,99103.94
2023-05-15T19:58:11.550Z,99105.66
2023-05-15T20:00:38.904Z,99115.06
2023-05-15T20:03:07.190Z,99108.59
2023-05-15T20:05:41.247Z,99107.94
2023-05-15T20:08:09.478Z,99103.09
2023-05-15T20:10:37.699Z,99112.06
2023-05-15T20:13:05.049Z,99116.03
2023-05-15T20:15:33.593Z,99117.47
2023-05-15T20:18:01.966Z,99108.50
2023-05-15T20:20:30.204Z,99110.06
2023-05-15T20:22:58.764Z,99131.53
2023-05-15T20:25:29.289Z,99135.31
2023-05-15T20:27:58.838Z,99140.38
2023-05-15T20:30:28.525Z,99143.63
2023-05-15T20:32:56.969Z,99140.09
2023-05-15T20:35:25.490Z,99143.25
2023-05-15T20:37:53.909Z,99135.81
2023-05-15T20:40:23.208Z,99145.94
2023-05-15T20:42:53.058Z,99143.63
2023-05-15T20:45:21.411Z,99140.25
2023-05-15T20:47:50.845Z,99154.75
2023-05-15T20:50:19.113Z,99143.47
2023-05-15T20:52:47.409Z,99146.66
2023-05-15T20:55:17.321Z,99146.19
2023-05-15T20:57:48.389Z,99140.25
2023-05-15T21:00:18.500Z,99144.09
2023-05-15T21:02:47.619Z,99147.00
2023-05-15T21:05:16.305Z,99150.66
2023-05-15T21:07:44.593Z,99157.56
2023-05-15T21:10:12.816Z,99168.03
2023-05-15T21:12:41.053Z,99164.09
2023-05-15T21:15:10.197Z,99159.28
2023-05-15T21:17:40.056Z,99155.78
2023-05-15T21:20:09.673Z,99159.22
2023-05-15T21:22:38.075Z,99153.53
2023-05-15T21:25:07.632Z,99153.72
2023-05-15T21:27:35.768Z,99155.13
2023-05-15T21:30:04.408Z,99164.25
2023-05-15T21:32:33.381Z,99170.38
2023-05-15T21:35:01.614Z,99160.34
2023-05-15T21:37:29.802Z,99155.06
2023-05-15T21:39:58.020Z,99153.34
2023-05-15T21:42:26.669Z,99147.47
2023-05-15T21:44:54.899Z,99147.69
2023-05-15T21:47:23.077Z,99150.94
2023-05-15T21:49:51.337Z,99162.38
2023-05-15T21:52:20.352Z,99165.88
2023-05-15T21:54:47.648Z,99170.44
2023-05-15T21:57:15.866Z,99168.75
2023-05-15T21:59:44.051Z,99162.75
2023-05-15T22:02:12.251Z,99161.91
2023-05-15T22:04:40.422Z,99167.31
2023-05-15T22:07:10.026Z,99173.69
2023-05-15T22:09:38.176Z,99172.72
2023-05-15T22:12:07.189Z,99178.13
2023-05-15T22:14:37.686Z,99178.97
2023-05-15T22:17:05.982Z,99182.25
2023-05-15T22:19:35.365Z,99204.63
2023-05-15T22:22:04.605Z,99194.06
2023-05-15T22:24:32.760Z,99191.69
2023-05-15T22:27:00.908Z,99196.53
2023-05-15T22:29:29.064Z,99194.84
2023-05-15T22:31:58.159Z,99198.28
2023-05-15T22:34:29.120Z,99205.16
2023-05-15T22:36:57.340Z,99201.44
2023-05-15T22:39:25.697Z,99205.41
2023-05-15T22:41:53.887Z,99197.72
2023-05-15T22:44:22.309Z,99196.31
2023-05-15T22:46:50.849Z,99199.69
2023-05-15T22:49:25.671Z,99194.13
2023-05-15T22:51:58.284Z,99193.66
2023-05-15T22:55:03.441Z,99186.47
2023-05-15T22:57:31.721Z,99196.03
2023-05-15T23:00:00.731Z,99186.47
2023-05-15T23:02:28.878Z,99182.16
2023-05-15T23:04:57.145Z,99180.56
2023-05-15T23:07:25.306Z,99172.00
2023-05-15T23:09:53.465Z,99170.06
2023-05-15T23:12:21.672Z,99172.00
2023-05-15T23:14:49.881Z,99174.38
2023-05-15T23:17:18.109Z,99174.09
2023-05-15T23:19:46.765Z,99166.97
2023-05-15T23:22:14.934Z,99166.72
2023-05-15T23:24:43.085Z,99165.31
2023-05-15T23:27:13.109Z,99162.94
2023-05-15T23:29:41.294Z,99166.03
2023-05-15T23:32:09.528Z,99155.78
2023-05-15T23:34:38.534Z,99160.19
2023-05-15T23:37:06.847Z,99162.75
2023-05-15T23:39:36.331Z,99162.75
2023-05-15T23:42:04.806Z,99161.91
2023-05-15T23:44:33.001Z,99165.13
2023-05-15T23:47:01.257Z,99154.19
2023-05-15T23:49:29.495Z,99147.03
2023-05-15T23:51:57.653Z,99141.63
2023-05-15T23:54:26.632Z,99155.84
2023-05-15T23:56:55.004Z,99156.94
2023-05-15T23:59:23.188Z,99155.25
